EDW419 LWSK-LSZH
Flight info
| Callsign | EDW419 |
|---|---|
| Flight time | 1h 44m |
| Altitude | 39000 |
| Route | GOSTI DCT MAVAR DCT ALELU DCT UTOMO DCT RUDIK DCT ERKIR DCT KPT L856 NEGRA |
| Aircraft | A320/M-SDE3FGHIRWY/LB1 |
Departure
| Time | 2026-05-08 19:15 |
|---|---|
| Airport | Skopje International Airport (LWSK) |
Arrival
| Time | 2026-05-08 20:59 |
|---|---|
| Airport | Zürich Airport (LSZH) |
| Time | Latitude | Longitude | Altitude | Speed | Heading |
|---|---|---|---|---|---|
| 2026-05-08 18:27 | 41.96105 | 21.62577 | 793 ft | 0 kts | 76° |
| 2026-05-08 18:36 | 41.96105 | 21.62576 | 793 ft | 0 kts | 76° |
| 2026-05-08 18:49 | 41.96105 | 21.62575 | 793 ft | 0 kts | 76° |
| 2026-05-08 19:06 | 41.96105 | 21.62573 | 793 ft | 2 kts | 76° |
| 2026-05-08 19:06 | 41.96101 | 21.62541 | 793 ft | 4 kts | 101° |
| 2026-05-08 19:06 | 41.96112 | 21.62512 | 793 ft | 4 kts | 152° |
| 2026-05-08 19:07 | 41.96125 | 21.62506 | 793 ft | 1 kts | 166° |
| 2026-05-08 19:07 | 41.96126 | 21.62505 | 793 ft | 2 kts | 166° |
| 2026-05-08 19:10 | 41.96115 | 21.62509 | 793 ft | 5 kts | 166° |
| 2026-05-08 19:10 | 41.96079 | 21.62521 | 793 ft | 5 kts | 166° |
| 2026-05-08 19:10 | 41.96051 | 21.62530 | 793 ft | 3 kts | 166° |
| 2026-05-08 19:11 | 41.96021 | 21.62514 | 793 ft | 6 kts | 232° |
| 2026-05-08 19:11 | 41.95983 | 21.62478 | 791 ft | 8 kts | 177° |
| 2026-05-08 19:11 | 41.95930 | 21.62502 | 791 ft | 8 kts | 163° |
| 2026-05-08 19:11 | 41.95867 | 21.62520 | 790 ft | 11 kts | 168° |
| 2026-05-08 19:12 | 41.95783 | 21.62545 | 788 ft | 14 kts | 167° |
| 2026-05-08 19:12 | 41.95678 | 21.62583 | 788 ft | 17 kts | 165° |
| 2026-05-08 19:12 | 41.95559 | 21.62625 | 785 ft | 18 kts | 165° |
| 2026-05-08 19:12 | 41.95438 | 21.62669 | 783 ft | 19 kts | 165° |
| 2026-05-08 19:13 | 41.95303 | 21.62717 | 781 ft | 21 kts | 165° |
| 2026-05-08 19:13 | 41.95170 | 21.62752 | 778 ft | 17 kts | 193° |
| 2026-05-08 19:13 | 41.95129 | 21.62649 | 778 ft | 11 kts | 259° |
| 2026-05-08 19:13 | 41.95116 | 21.62557 | 779 ft | 9 kts | 260° |
| 2026-05-08 19:14 | 41.95125 | 21.62510 | 781 ft | 4 kts | 314° |
| 2026-05-08 19:14 | 41.95155 | 21.62495 | 781 ft | 11 kts | 345° |
| 2026-05-08 19:14 | 41.95488 | 21.62379 | 783 ft | 87 kts | 345° |
| 2026-05-08 19:14 | 41.96282 | 21.62108 | 792 ft | 146 kts | 346° |
| 2026-05-08 19:15 | 41.97310 | 21.61752 | 1195 ft | 152 kts | 346° |
| 2026-05-08 19:15 | 41.98390 | 21.61348 | 1599 ft | 169 kts | 347° |
| 2026-05-08 19:15 | 41.99579 | 21.60951 | 2162 ft | 182 kts | 347° |
| 2026-05-08 19:15 | 42.00928 | 21.60784 | 2338 ft | 206 kts | 15° |
| 2026-05-08 19:16 | 42.02116 | 21.61820 | 2801 ft | 210 kts | 54° |
| 2026-05-08 19:16 | 42.02558 | 21.63730 | 3099 ft | 229 kts | 96° |
| 2026-05-08 19:16 | 42.01898 | 21.65722 | 3525 ft | 245 kts | 136° |
| 2026-05-08 19:16 | 42.00425 | 21.67001 | 4117 ft | 259 kts | 161° |
| 2026-05-08 19:17 | 41.98635 | 21.67278 | 4920 ft | 264 kts | 189° |
| 2026-05-08 19:17 | 41.96940 | 21.66343 | 5743 ft | 268 kts | 218° |
| 2026-05-08 19:17 | 41.95799 | 21.64380 | 6596 ft | 271 kts | 246° |
| 2026-05-08 19:17 | 41.95168 | 21.61986 | 7443 ft | 273 kts | 251° |
| 2026-05-08 19:18 | 41.94574 | 21.59598 | 8304 ft | 273 kts | 251° |
| 2026-05-08 19:18 | 41.93972 | 21.57173 | 9181 ft | 274 kts | 252° |
| 2026-05-08 19:18 | 41.93364 | 21.54739 | 10034 ft | 275 kts | 252° |
| 2026-05-08 19:18 | 41.92735 | 21.52240 | 10444 ft | 293 kts | 252° |
| 2026-05-08 19:19 | 41.92055 | 21.49557 | 10727 ft | 313 kts | 251° |
| 2026-05-08 19:19 | 41.91344 | 21.46761 | 11343 ft | 319 kts | 251° |
| 2026-05-08 19:19 | 41.90623 | 21.43927 | 12064 ft | 322 kts | 251° |
| 2026-05-08 19:19 | 41.89895 | 21.41068 | 12802 ft | 325 kts | 251° |
| 2026-05-08 19:20 | 41.89159 | 21.38184 | 13517 ft | 328 kts | 251° |
| 2026-05-08 19:20 | 41.88686 | 21.36213 | 13978 ft | 330 kts | 256° |
| 2026-05-08 19:20 | 41.88627 | 21.32140 | 14744 ft | 336 kts | 282° |
| 2026-05-08 19:20 | 41.89559 | 21.29243 | 15314 ft | 344 kts | 301° |
| 2026-05-08 19:21 | 41.90949 | 21.26603 | 15893 ft | 348 kts | 303° |
| 2026-05-08 19:21 | 41.92368 | 21.23954 | 16498 ft | 352 kts | 303° |
| 2026-05-08 19:21 | 41.93808 | 21.21272 | 17081 ft | 356 kts | 303° |
| 2026-05-08 19:21 | 41.95265 | 21.18559 | 17646 ft | 360 kts | 304° |
| 2026-05-08 19:22 | 41.96732 | 21.15812 | 18225 ft | 364 kts | 303° |
| 2026-05-08 19:22 | 41.98214 | 21.13031 | 18741 ft | 367 kts | 304° |
| 2026-05-08 19:22 | 41.99707 | 21.10223 | 19260 ft | 370 kts | 304° |
| 2026-05-08 19:22 | 42.01209 | 21.07394 | 19784 ft | 373 kts | 304° |
| 2026-05-08 19:23 | 42.02719 | 21.04534 | 20302 ft | 376 kts | 303° |
| 2026-05-08 19:23 | 42.04235 | 21.01655 | 20819 ft | 379 kts | 303° |
| 2026-05-08 19:23 | 42.05763 | 20.98754 | 21329 ft | 382 kts | 303° |
| 2026-05-08 19:23 | 42.07308 | 20.95829 | 21860 ft | 384 kts | 304° |
| 2026-05-08 19:24 | 42.08862 | 20.92888 | 22392 ft | 387 kts | 303° |
| 2026-05-08 19:24 | 42.10407 | 20.89958 | 22893 ft | 390 kts | 303° |
| 2026-05-08 19:24 | 42.11984 | 20.86968 | 23407 ft | 392 kts | 303° |
| 2026-05-08 19:24 | 42.13569 | 20.83957 | 23849 ft | 394 kts | 304° |
| 2026-05-08 19:25 | 42.15161 | 20.80929 | 24243 ft | 397 kts | 303° |
| 2026-05-08 19:25 | 42.16757 | 20.77886 | 24661 ft | 398 kts | 303° |
| 2026-05-08 19:25 | 42.18359 | 20.74828 | 25051 ft | 400 kts | 303° |
| 2026-05-08 19:25 | 42.19972 | 20.71746 | 25425 ft | 403 kts | 303° |
| 2026-05-08 19:26 | 42.21590 | 20.68652 | 25801 ft | 405 kts | 303° |
| 2026-05-08 19:26 | 42.23219 | 20.65534 | 26168 ft | 407 kts | 303° |
| 2026-05-08 19:26 | 42.24856 | 20.62398 | 26523 ft | 409 kts | 303° |
| 2026-05-08 19:26 | 42.26500 | 20.59245 | 26866 ft | 412 kts | 303° |
| 2026-05-08 19:27 | 42.28151 | 20.56077 | 27214 ft | 414 kts | 303° |
| 2026-05-08 19:27 | 42.29812 | 20.52891 | 27551 ft | 416 kts | 303° |
| 2026-05-08 19:27 | 42.31482 | 20.49683 | 27882 ft | 418 kts | 303° |
| 2026-05-08 19:27 | 42.33157 | 20.46462 | 28215 ft | 420 kts | 303° |
| 2026-05-08 19:28 | 42.34842 | 20.43217 | 28540 ft | 423 kts | 303° |
| 2026-05-08 19:28 | 42.36533 | 20.39951 | 28859 ft | 425 kts | 303° |
| 2026-05-08 19:28 | 42.38227 | 20.36674 | 29168 ft | 427 kts | 303° |
| 2026-05-08 19:28 | 42.39934 | 20.33370 | 29456 ft | 429 kts | 303° |
| 2026-05-08 19:29 | 42.41648 | 20.30056 | 29751 ft | 431 kts | 303° |
| 2026-05-08 19:29 | 42.43372 | 20.26715 | 30038 ft | 433 kts | 303° |
| 2026-05-08 19:29 | 42.45102 | 20.23355 | 30285 ft | 435 kts | 303° |
| 2026-05-08 19:29 | 42.46837 | 20.19982 | 30519 ft | 437 kts | 303° |
| 2026-05-08 19:30 | 42.48575 | 20.16598 | 30749 ft | 439 kts | 303° |
| 2026-05-08 19:30 | 42.50319 | 20.13200 | 30980 ft | 440 kts | 303° |
| 2026-05-08 19:30 | 42.52045 | 20.09832 | 31191 ft | 442 kts | 303° |
| 2026-05-08 19:30 | 42.53797 | 20.06410 | 31479 ft | 441 kts | 303° |
| 2026-05-08 19:31 | 42.55546 | 20.02991 | 31787 ft | 441 kts | 303° |
| 2026-05-08 19:31 | 42.57291 | 19.99577 | 32084 ft | 440 kts | 303° |
| 2026-05-08 19:31 | 42.59035 | 19.96167 | 32385 ft | 439 kts | 303° |
| 2026-05-08 19:31 | 42.60780 | 19.92759 | 32689 ft | 439 kts | 303° |
| 2026-05-08 19:32 | 42.62520 | 19.89356 | 32971 ft | 438 kts | 303° |
| 2026-05-08 19:32 | 42.64272 | 19.85970 | 33270 ft | 438 kts | 306° |
| 2026-05-08 19:32 | 42.66288 | 19.82852 | 33562 ft | 439 kts | 311° |
| 2026-05-08 19:32 | 42.68402 | 19.79851 | 33841 ft | 440 kts | 311° |
| 2026-05-08 19:33 | 42.70517 | 19.76857 | 34096 ft | 440 kts | 311° |
| 2026-05-08 19:33 | 42.72638 | 19.73852 | 34353 ft | 439 kts | 311° |
| 2026-05-08 19:33 | 42.74752 | 19.70848 | 34612 ft | 438 kts | 311° |
| 2026-05-08 19:33 | 42.76826 | 19.67891 | 34873 ft | 437 kts | 311° |
| 2026-05-08 19:34 | 42.78923 | 19.64896 | 35141 ft | 436 kts | 311° |
| 2026-05-08 19:34 | 42.81008 | 19.61906 | 35395 ft | 435 kts | 311° |
| 2026-05-08 19:34 | 42.83085 | 19.58923 | 35620 ft | 434 kts | 311° |
| 2026-05-08 19:34 | 42.85162 | 19.55944 | 35845 ft | 433 kts | 311° |
| 2026-05-08 19:35 | 42.87238 | 19.52969 | 36081 ft | 432 kts | 311° |
| 2026-05-08 19:35 | 42.89306 | 19.50000 | 36293 ft | 431 kts | 311° |
| 2026-05-08 19:35 | 42.91368 | 19.47037 | 36511 ft | 430 kts | 311° |
| 2026-05-08 19:35 | 42.93428 | 19.44071 | 36712 ft | 429 kts | 311° |
| 2026-05-08 19:36 | 42.95477 | 19.41116 | 36929 ft | 428 kts | 311° |
| 2026-05-08 19:36 | 42.99569 | 19.35224 | 37037 ft | 427 kts | 311° |
| 2026-05-08 19:37 | 43.03627 | 19.29373 | 37043 ft | 426 kts | 311° |
| 2026-05-08 19:37 | 43.07701 | 19.23473 | 37039 ft | 426 kts | 310° |
| 2026-05-08 19:38 | 43.11770 | 19.17557 | 37039 ft | 426 kts | 310° |
| 2026-05-08 19:38 | 43.15841 | 19.11626 | 37053 ft | 427 kts | 310° |
| 2026-05-08 19:39 | 43.19875 | 19.05729 | 37038 ft | 427 kts | 310° |
| 2026-05-08 19:39 | 43.23946 | 18.99807 | 37036 ft | 426 kts | 310° |
| 2026-05-08 19:40 | 43.28013 | 18.93871 | 37036 ft | 426 kts | 310° |
| 2026-05-08 19:40 | 43.32075 | 18.87914 | 37035 ft | 426 kts | 310° |
| 2026-05-08 19:41 | 43.36128 | 18.81963 | 37033 ft | 426 kts | 310° |
| 2026-05-08 19:41 | 43.40171 | 18.75996 | 37034 ft | 426 kts | 310° |
| 2026-05-08 19:42 | 43.44205 | 18.70034 | 37038 ft | 425 kts | 310° |
| 2026-05-08 19:42 | 43.48248 | 18.64066 | 37039 ft | 427 kts | 310° |
| 2026-05-08 19:43 | 43.52266 | 18.58116 | 37040 ft | 427 kts | 310° |
| 2026-05-08 19:43 | 43.56305 | 18.52114 | 37036 ft | 427 kts | 310° |
| 2026-05-08 19:44 | 43.60344 | 18.46112 | 37047 ft | 426 kts | 310° |
| 2026-05-08 19:44 | 43.64368 | 18.40114 | 37047 ft | 425 kts | 310° |
| 2026-05-08 19:45 | 43.68379 | 18.34115 | 37048 ft | 425 kts | 310° |
| 2026-05-08 19:45 | 43.72396 | 18.28099 | 37056 ft | 427 kts | 310° |
| 2026-05-08 19:46 | 43.76431 | 18.22049 | 37056 ft | 428 kts | 310° |
| 2026-05-08 19:46 | 43.82446 | 18.12993 | 37051 ft | 427 kts | 310° |
| 2026-05-08 19:47 | 43.86464 | 18.06932 | 37050 ft | 427 kts | 310° |
| 2026-05-08 19:47 | 43.90480 | 18.00856 | 37048 ft | 427 kts | 309° |
| 2026-05-08 19:48 | 43.94491 | 17.94780 | 37056 ft | 427 kts | 309° |
| 2026-05-08 19:48 | 43.98497 | 17.88695 | 37056 ft | 428 kts | 309° |
| 2026-05-08 19:49 | 44.02511 | 17.82577 | 37059 ft | 430 kts | 309° |
| 2026-05-08 19:49 | 44.06559 | 17.76399 | 37059 ft | 438 kts | 309° |
| 2026-05-08 19:50 | 44.10692 | 17.70081 | 37067 ft | 444 kts | 309° |
| 2026-05-08 19:50 | 44.14871 | 17.63676 | 37067 ft | 449 kts | 309° |
| 2026-05-08 19:51 | 44.19077 | 17.57227 | 37076 ft | 451 kts | 309° |
| 2026-05-08 19:51 | 44.23291 | 17.50737 | 37083 ft | 452 kts | 309° |
| 2026-05-08 19:52 | 44.27508 | 17.44217 | 37080 ft | 452 kts | 309° |
| 2026-05-08 19:52 | 44.31728 | 17.37698 | 37084 ft | 452 kts | 309° |
| 2026-05-08 19:53 | 44.35937 | 17.31177 | 37084 ft | 452 kts | 309° |
| 2026-05-08 19:53 | 44.40142 | 17.24645 | 37083 ft | 452 kts | 309° |
| 2026-05-08 19:54 | 44.43633 | 17.19203 | 37083 ft | 452 kts | 309° |
| 2026-05-08 19:54 | 44.48513 | 17.11582 | 37092 ft | 452 kts | 309° |
| 2026-05-08 19:55 | 44.52031 | 17.06089 | 37073 ft | 452 kts | 309° |
| 2026-05-08 19:55 | 44.56202 | 16.99572 | 37072 ft | 452 kts | 309° |
| 2026-05-08 19:56 | 44.60391 | 16.93000 | 37070 ft | 452 kts | 309° |
| 2026-05-08 19:56 | 44.64571 | 16.86409 | 37070 ft | 452 kts | 309° |
| 2026-05-08 19:57 | 44.68743 | 16.79820 | 37073 ft | 450 kts | 308° |
| 2026-05-08 19:57 | 44.72907 | 16.73230 | 37073 ft | 450 kts | 308° |
| 2026-05-08 19:58 | 44.77071 | 16.66625 | 37073 ft | 452 kts | 308° |
| 2026-05-08 19:58 | 44.81239 | 16.59998 | 37073 ft | 452 kts | 308° |
| 2026-05-08 19:59 | 44.85417 | 16.53350 | 37072 ft | 452 kts | 308° |
| 2026-05-08 19:59 | 44.89553 | 16.46746 | 37068 ft | 452 kts | 308° |
| 2026-05-08 20:00 | 44.93710 | 16.40080 | 37071 ft | 452 kts | 308° |
| 2026-05-08 20:00 | 44.97864 | 16.33407 | 37073 ft | 452 kts | 308° |
| 2026-05-08 20:01 | 45.02030 | 16.26744 | 37081 ft | 453 kts | 309° |
| 2026-05-08 20:01 | 45.06230 | 16.20166 | 37068 ft | 454 kts | 309° |
| 2026-05-08 20:02 | 45.10479 | 16.13540 | 37068 ft | 454 kts | 309° |
| 2026-05-08 20:02 | 45.14704 | 16.06891 | 37068 ft | 454 kts | 309° |
| 2026-05-08 20:03 | 45.18926 | 16.00220 | 37071 ft | 454 kts | 309° |
| 2026-05-08 20:03 | 45.23130 | 15.93552 | 37067 ft | 452 kts | 309° |
| 2026-05-08 20:04 | 45.27322 | 15.86883 | 37072 ft | 453 kts | 308° |
| 2026-05-08 20:04 | 45.31493 | 15.80235 | 37065 ft | 454 kts | 308° |
| 2026-05-08 20:05 | 45.35695 | 15.73530 | 37061 ft | 454 kts | 308° |
| 2026-05-08 20:05 | 45.39884 | 15.66821 | 37078 ft | 454 kts | 308° |
| 2026-05-08 20:06 | 45.44072 | 15.60106 | 37078 ft | 453 kts | 308° |
| 2026-05-08 20:06 | 45.48254 | 15.53379 | 37072 ft | 453 kts | 308° |
| 2026-05-08 20:07 | 45.52434 | 15.46634 | 37068 ft | 454 kts | 308° |
| 2026-05-08 20:07 | 45.56614 | 15.39888 | 37071 ft | 454 kts | 308° |
| 2026-05-08 20:08 | 45.60802 | 15.33118 | 37070 ft | 454 kts | 308° |
| 2026-05-08 20:08 | 45.64948 | 15.26381 | 37070 ft | 454 kts | 308° |
| 2026-05-08 20:09 | 45.69117 | 15.19593 | 37074 ft | 454 kts | 308° |
| 2026-05-08 20:09 | 45.73292 | 15.12795 | 37073 ft | 454 kts | 308° |
| 2026-05-08 20:10 | 45.77450 | 15.05982 | 37084 ft | 454 kts | 308° |
| 2026-05-08 20:10 | 45.81572 | 14.99215 | 37076 ft | 453 kts | 308° |
| 2026-05-08 20:11 | 45.85718 | 14.92409 | 37075 ft | 453 kts | 308° |
| 2026-05-08 20:11 | 45.89853 | 14.85591 | 37075 ft | 453 kts | 308° |
| 2026-05-08 20:12 | 45.93990 | 14.78770 | 37073 ft | 453 kts | 308° |
| 2026-05-08 20:12 | 45.98114 | 14.71940 | 37080 ft | 451 kts | 308° |
| 2026-05-08 20:13 | 46.02219 | 14.65120 | 37094 ft | 451 kts | 308° |
| 2026-05-08 20:13 | 46.06307 | 14.58311 | 37099 ft | 453 kts | 308° |
| 2026-05-08 20:14 | 46.10426 | 14.51439 | 37107 ft | 453 kts | 308° |
| 2026-05-08 20:14 | 46.14548 | 14.44556 | 37123 ft | 453 kts | 308° |
| 2026-05-08 20:15 | 46.18655 | 14.37679 | 37111 ft | 452 kts | 307° |
| 2026-05-08 20:15 | 46.22746 | 14.30791 | 37113 ft | 451 kts | 307° |
| 2026-05-08 20:16 | 46.26836 | 14.23903 | 37102 ft | 451 kts | 307° |
| 2026-05-08 20:16 | 46.30924 | 14.17003 | 37093 ft | 452 kts | 307° |
| 2026-05-08 20:17 | 46.34989 | 14.10118 | 37083 ft | 452 kts | 307° |
| 2026-05-08 20:17 | 46.39078 | 14.03181 | 37073 ft | 452 kts | 307° |
| 2026-05-08 20:18 | 46.43156 | 13.96238 | 37073 ft | 452 kts | 307° |
| 2026-05-08 20:18 | 46.47226 | 13.89284 | 37074 ft | 452 kts | 307° |
| 2026-05-08 20:19 | 46.51284 | 13.82332 | 37084 ft | 452 kts | 307° |
| 2026-05-08 20:19 | 46.55338 | 13.75380 | 37073 ft | 450 kts | 307° |
| 2026-05-08 20:20 | 46.59394 | 13.68413 | 37076 ft | 452 kts | 307° |
| 2026-05-08 20:20 | 46.63449 | 13.61430 | 37076 ft | 452 kts | 307° |
| 2026-05-08 20:21 | 46.67504 | 13.54435 | 37085 ft | 452 kts | 307° |
| 2026-05-08 20:21 | 46.71520 | 13.47464 | 37080 ft | 451 kts | 307° |
| 2026-05-08 20:22 | 46.75551 | 13.40452 | 37075 ft | 450 kts | 307° |
| 2026-05-08 20:22 | 46.78898 | 13.34631 | 37083 ft | 450 kts | 307° |
| 2026-05-08 20:23 | 46.83587 | 13.26454 | 37092 ft | 450 kts | 307° |
| 2026-05-08 20:23 | 46.87606 | 13.19410 | 37093 ft | 451 kts | 307° |
| 2026-05-08 20:24 | 46.91625 | 13.12359 | 37081 ft | 450 kts | 307° |
| 2026-05-08 20:24 | 46.95609 | 13.05366 | 37083 ft | 450 kts | 307° |
| 2026-05-08 20:25 | 46.99598 | 12.98317 | 37088 ft | 450 kts | 307° |
| 2026-05-08 20:25 | 47.03585 | 12.91254 | 37094 ft | 449 kts | 307° |
| 2026-05-08 20:26 | 47.07569 | 12.84190 | 37090 ft | 449 kts | 307° |
| 2026-05-08 20:26 | 47.11556 | 12.77116 | 37083 ft | 450 kts | 307° |
| 2026-05-08 20:27 | 47.15541 | 12.70021 | 37080 ft | 450 kts | 307° |
| 2026-05-08 20:27 | 47.19523 | 12.62902 | 37079 ft | 450 kts | 307° |
| 2026-05-08 20:28 | 47.23463 | 12.55836 | 37080 ft | 448 kts | 307° |
| 2026-05-08 20:28 | 47.27417 | 12.48733 | 37076 ft | 449 kts | 307° |
| 2026-05-08 20:29 | 47.31360 | 12.41630 | 37074 ft | 447 kts | 307° |
| 2026-05-08 20:29 | 47.35299 | 12.34523 | 37080 ft | 448 kts | 307° |
| 2026-05-08 20:30 | 47.39244 | 12.27388 | 37073 ft | 449 kts | 307° |
| 2026-05-08 20:30 | 47.43187 | 12.20225 | 37064 ft | 449 kts | 307° |
| 2026-05-08 20:31 | 47.47118 | 12.13058 | 37064 ft | 449 kts | 306° |
| 2026-05-08 20:31 | 47.51047 | 12.05878 | 37059 ft | 449 kts | 306° |
| 2026-05-08 20:32 | 47.54019 | 11.97948 | 37060 ft | 443 kts | 286° |
| 2026-05-08 20:32 | 47.55323 | 11.89071 | 37028 ft | 441 kts | 279° |
| 2026-05-08 20:33 | 47.55908 | 11.84618 | 36757 ft | 441 kts | 280° |
| 2026-05-08 20:33 | 47.56501 | 11.80156 | 36500 ft | 441 kts | 280° |
| 2026-05-08 20:33 | 47.57035 | 11.75684 | 36256 ft | 440 kts | 278° |
| 2026-05-08 20:33 | 47.57464 | 11.71217 | 36004 ft | 438 kts | 277° |
| 2026-05-08 20:34 | 47.57826 | 11.66737 | 35756 ft | 437 kts | 276° |
| 2026-05-08 20:34 | 47.58156 | 11.62260 | 35510 ft | 437 kts | 276° |
| 2026-05-08 20:34 | 47.58828 | 11.53330 | 35024 ft | 435 kts | 276° |
| 2026-05-08 20:35 | 47.59184 | 11.48879 | 34674 ft | 433 kts | 276° |
| 2026-05-08 20:35 | 47.59549 | 11.44455 | 33829 ft | 432 kts | 277° |
| 2026-05-08 20:35 | 47.59920 | 11.40039 | 33255 ft | 432 kts | 276° |
| 2026-05-08 20:35 | 47.60296 | 11.35608 | 33051 ft | 434 kts | 277° |
| 2026-05-08 20:36 | 47.60669 | 11.31183 | 33060 ft | 432 kts | 277° |
| 2026-05-08 20:36 | 47.61395 | 11.22322 | 33068 ft | 433 kts | 276° |
| 2026-05-08 20:37 | 47.62104 | 11.13516 | 33073 ft | 433 kts | 276° |
| 2026-05-08 20:37 | 47.62809 | 11.04659 | 33072 ft | 433 kts | 276° |
| 2026-05-08 20:37 | 47.63159 | 11.00244 | 32771 ft | 426 kts | 276° |
| 2026-05-08 20:38 | 47.63496 | 10.95966 | 32511 ft | 412 kts | 276° |
| 2026-05-08 20:38 | 47.63823 | 10.91794 | 32141 ft | 402 kts | 276° |
| 2026-05-08 20:38 | 47.64147 | 10.87703 | 31630 ft | 397 kts | 276° |
| 2026-05-08 20:38 | 47.64464 | 10.83662 | 31084 ft | 393 kts | 276° |
| 2026-05-08 20:39 | 47.64777 | 10.79650 | 30523 ft | 390 kts | 275° |
| 2026-05-08 20:39 | 47.65087 | 10.75660 | 29942 ft | 388 kts | 275° |
| 2026-05-08 20:39 | 47.65391 | 10.71701 | 29304 ft | 386 kts | 275° |
| 2026-05-08 20:39 | 47.65690 | 10.67761 | 28691 ft | 383 kts | 275° |
| 2026-05-08 20:40 | 47.65986 | 10.63851 | 28084 ft | 381 kts | 275° |
| 2026-05-08 20:40 | 47.66281 | 10.59958 | 27545 ft | 377 kts | 275° |
| 2026-05-08 20:40 | 47.66573 | 10.56116 | 27129 ft | 372 kts | 275° |
| 2026-05-08 20:40 | 47.66857 | 10.52331 | 26713 ft | 367 kts | 275° |
| 2026-05-08 20:41 | 47.67135 | 10.48595 | 26290 ft | 362 kts | 275° |
| 2026-05-08 20:41 | 47.67412 | 10.44890 | 25854 ft | 359 kts | 275° |
| 2026-05-08 20:41 | 47.67593 | 10.42460 | 25573 ft | 357 kts | 275° |
| 2026-05-08 20:41 | 47.67951 | 10.37592 | 25002 ft | 353 kts | 275° |
| 2026-05-08 20:42 | 47.68212 | 10.34031 | 24556 ft | 351 kts | 275° |
| 2026-05-08 20:42 | 47.68389 | 10.31607 | 24264 ft | 349 kts | 275° |
| 2026-05-08 20:42 | 47.68733 | 10.26879 | 23672 ft | 347 kts | 275° |
| 2026-05-08 20:42 | 47.68990 | 10.23337 | 23185 ft | 344 kts | 275° |
| 2026-05-08 20:43 | 47.69245 | 10.19822 | 22749 ft | 341 kts | 275° |
| 2026-05-08 20:43 | 47.69415 | 10.17472 | 22461 ft | 338 kts | 275° |
| 2026-05-08 20:43 | 47.69661 | 10.14052 | 22032 ft | 335 kts | 275° |
| 2026-05-08 20:43 | 47.69906 | 10.10617 | 21622 ft | 333 kts | 275° |
| 2026-05-08 20:44 | 47.70147 | 10.07212 | 21207 ft | 331 kts | 275° |
| 2026-05-08 20:44 | 47.70388 | 10.03825 | 20800 ft | 328 kts | 275° |
| 2026-05-08 20:44 | 47.70626 | 10.00470 | 20394 ft | 326 kts | 275° |
| 2026-05-08 20:44 | 47.70860 | 9.97124 | 19989 ft | 324 kts | 275° |
| 2026-05-08 20:45 | 47.71091 | 9.93801 | 19588 ft | 323 kts | 275° |
| 2026-05-08 20:45 | 47.71320 | 9.90495 | 19188 ft | 321 kts | 275° |
| 2026-05-08 20:45 | 47.71546 | 9.87197 | 18799 ft | 320 kts | 275° |
| 2026-05-08 20:45 | 47.71614 | 9.83887 | 18086 ft | 327 kts | 262° |
| 2026-05-08 20:46 | 47.70944 | 9.80606 | 17190 ft | 338 kts | 247° |
| 2026-05-08 20:46 | 47.70038 | 9.77449 | 16828 ft | 334 kts | 247° |
| 2026-05-08 20:46 | 47.69114 | 9.74263 | 16451 ft | 330 kts | 247° |
| 2026-05-08 20:46 | 47.68220 | 9.71181 | 16042 ft | 328 kts | 247° |
| 2026-05-08 20:47 | 47.67323 | 9.68083 | 15642 ft | 326 kts | 247° |
| 2026-05-08 20:47 | 47.66436 | 9.65008 | 15260 ft | 323 kts | 247° |
| 2026-05-08 20:47 | 47.65555 | 9.61952 | 14864 ft | 321 kts | 247° |
| 2026-05-08 20:47 | 47.64680 | 9.58908 | 14472 ft | 319 kts | 247° |
| 2026-05-08 20:48 | 47.63811 | 9.55887 | 14096 ft | 317 kts | 247° |
| 2026-05-08 20:48 | 47.62946 | 9.52890 | 13691 ft | 315 kts | 246° |
| 2026-05-08 20:48 | 47.62082 | 9.49909 | 13249 ft | 314 kts | 246° |
| 2026-05-08 20:48 | 47.61220 | 9.46943 | 12771 ft | 313 kts | 247° |
| 2026-05-08 20:49 | 47.60359 | 9.43977 | 12325 ft | 312 kts | 247° |
| 2026-05-08 20:49 | 47.59504 | 9.41031 | 11872 ft | 311 kts | 247° |
| 2026-05-08 20:49 | 47.58650 | 9.38101 | 11476 ft | 308 kts | 246° |
| 2026-05-08 20:49 | 47.57802 | 9.35195 | 11092 ft | 306 kts | 247° |
| 2026-05-08 20:50 | 47.56971 | 9.32344 | 10707 ft | 304 kts | 247° |
| 2026-05-08 20:50 | 47.56137 | 9.29488 | 10321 ft | 302 kts | 247° |
| 2026-05-08 20:50 | 47.55306 | 9.26643 | 9915 ft | 300 kts | 247° |
| 2026-05-08 20:50 | 47.54491 | 9.23861 | 9635 ft | 287 kts | 247° |
| 2026-05-08 20:51 | 47.53710 | 9.21196 | 9140 ft | 277 kts | 246° |
| 2026-05-08 20:51 | 47.52958 | 9.18630 | 8755 ft | 267 kts | 246° |
| 2026-05-08 20:51 | 47.52218 | 9.16116 | 8382 ft | 266 kts | 246° |
| 2026-05-08 20:51 | 47.51481 | 9.13616 | 8021 ft | 264 kts | 246° |
| 2026-05-08 20:52 | 47.50774 | 9.11217 | 7891 ft | 244 kts | 246° |
| 2026-05-08 20:52 | 47.50118 | 9.08987 | 7637 ft | 232 kts | 246° |
| 2026-05-08 20:52 | 47.49480 | 9.06817 | 7196 ft | 229 kts | 246° |
| 2026-05-08 20:52 | 47.48843 | 9.04658 | 6729 ft | 228 kts | 245° |
| 2026-05-08 20:53 | 47.48193 | 9.02457 | 6348 ft | 237 kts | 245° |
| 2026-05-08 20:53 | 47.47528 | 9.00207 | 6288 ft | 241 kts | 245° |
| 2026-05-08 20:53 | 47.46853 | 8.97929 | 6196 ft | 242 kts | 245° |
| 2026-05-08 20:53 | 47.46186 | 8.95679 | 6093 ft | 242 kts | 245° |
| 2026-05-08 20:54 | 47.45511 | 8.93407 | 5986 ft | 241 kts | 245° |
| 2026-05-08 20:54 | 47.44836 | 8.91130 | 5885 ft | 242 kts | 245° |
| 2026-05-08 20:54 | 47.44163 | 8.88858 | 5769 ft | 236 kts | 245° |
| 2026-05-08 20:54 | 47.43653 | 8.86661 | 5658 ft | 219 kts | 262° |
| 2026-05-08 20:55 | 47.43668 | 8.84472 | 5464 ft | 211 kts | 276° |
| 2026-05-08 20:55 | 47.43826 | 8.82340 | 5133 ft | 202 kts | 276° |
| 2026-05-08 20:55 | 47.43976 | 8.80306 | 4851 ft | 198 kts | 276° |
| 2026-05-08 20:55 | 47.44124 | 8.78287 | 4561 ft | 197 kts | 276° |
| 2026-05-08 20:56 | 47.44271 | 8.76280 | 4279 ft | 196 kts | 276° |
| 2026-05-08 20:56 | 47.44417 | 8.74275 | 3989 ft | 196 kts | 276° |
| 2026-05-08 20:56 | 47.44559 | 8.72327 | 3713 ft | 184 kts | 276° |
| 2026-05-08 20:56 | 47.44692 | 8.70496 | 3455 ft | 177 kts | 276° |
| 2026-05-08 20:57 | 47.44820 | 8.68729 | 3201 ft | 174 kts | 277° |
| 2026-05-08 20:57 | 47.44949 | 8.66941 | 2943 ft | 172 kts | 276° |
| 2026-05-08 20:57 | 47.45074 | 8.65212 | 2698 ft | 171 kts | 276° |
| 2026-05-08 20:57 | 47.45196 | 8.63511 | 2443 ft | 160 kts | 276° |
| 2026-05-08 20:58 | 47.45310 | 8.61923 | 2206 ft | 151 kts | 276° |
| 2026-05-08 20:58 | 47.45420 | 8.60395 | 1975 ft | 148 kts | 275° |
| 2026-05-08 20:58 | 47.45531 | 8.58887 | 1748 ft | 147 kts | 274° |
| 2026-05-08 20:58 | 47.45640 | 8.57386 | 1526 ft | 147 kts | 274° |
| 2026-05-08 20:59 | 47.45744 | 8.55924 | 1413 ft | 132 kts | 274° |
| 2026-05-08 20:59 | 47.45810 | 8.54943 | 1389 ft | 53 kts | 276° |
| 2026-05-08 20:59 | 47.45826 | 8.54657 | 1391 ft | 23 kts | 269° |
| 2026-05-08 20:59 | 47.45799 | 8.54410 | 1387 ft | 24 kts | 252° |
| 2026-05-08 21:00 | 47.45725 | 8.54227 | 1385 ft | 16 kts | 221° |
| 2026-05-08 21:00 | 47.45624 | 8.54249 | 1384 ft | 16 kts | 125° |
| 2026-05-08 21:00 | 47.45584 | 8.54400 | 1384 ft | 17 kts | 111° |
| 2026-05-08 21:00 | 47.45554 | 8.54534 | 1389 ft | 12 kts | 107° |
| 2026-05-08 21:01 | 47.45532 | 8.54647 | 1387 ft | 10 kts | 107° |
| 2026-05-08 21:01 | 47.45512 | 8.54739 | 1394 ft | 8 kts | 108° |
| 2026-05-08 21:01 | 47.45502 | 8.54785 | 1402 ft | 0 kts | 108° |
| 2026-05-08 21:03 | 47.45502 | 8.54786 | 1401 ft | 1 kts | 108° |
| 2026-05-08 21:03 | 47.45481 | 8.54876 | 1394 ft | 13 kts | 109° |
| 2026-05-08 21:03 | 47.45450 | 8.55003 | 1399 ft | 13 kts | 110° |
| 2026-05-08 21:03 | 47.45419 | 8.55125 | 1398 ft | 13 kts | 110° |
| 2026-05-08 21:04 | 47.45389 | 8.55250 | 1399 ft | 13 kts | 110° |
| 2026-05-08 21:04 | 47.45349 | 8.55368 | 1404 ft | 13 kts | 121° |
| 2026-05-08 21:04 | 47.45309 | 8.55466 | 1403 ft | 10 kts | 119° |
| 2026-05-08 21:04 | 47.45278 | 8.55552 | 1407 ft | 8 kts | 112° |
| 2026-05-08 21:05 | 47.45272 | 8.55621 | 1411 ft | 6 kts | 96° |
| 2026-05-08 21:05 | 47.45269 | 8.55672 | 1407 ft | 4 kts | 96° |
| 2026-05-08 21:05 | 47.45265 | 8.55719 | 1407 ft | 5 kts | 96° |
| 2026-05-08 21:05 | 47.45262 | 8.55770 | 1407 ft | 5 kts | 95° |
| 2026-05-08 21:06 | 47.45259 | 8.55818 | 1407 ft | 4 kts | 95° |
| 2026-05-08 21:06 | 47.45255 | 8.55875 | 1412 ft | 7 kts | 95° |
| 2026-05-08 21:06 | 47.45251 | 8.55935 | 1407 ft | 5 kts | 98° |
| 2026-05-08 21:06 | 47.45231 | 8.55945 | 1410 ft | 2 kts | 186° |
| 2026-05-08 21:07 | 47.45220 | 8.55944 | 1410 ft | 1 kts | 185° |
| 2026-05-08 21:07 | 47.45200 | 8.55941 | 1411 ft | 4 kts | 185° |
| 2026-05-08 21:07 | 47.45174 | 8.55937 | 1407 ft | 1 kts | 185° |
| 2026-05-08 21:07 | 47.45169 | 8.55937 | 1407 ft | 0 kts | 186° |
| 2026-05-08 21:09 | 47.45170 | 8.55937 | 1407 ft | 0 kts | 186° |